sensor_id;sensor_type;location;lat;lon;timestamp;P1;durP1;ratioP1;P2;durP2;ratioP2
15228;SDS011;7717;47.792;12.076;2023-04-30T00:00:04;4.07;;;3.67;;
15228;SDS011;7717;47.792;12.076;2023-04-30T00:02:32;5.03;;;3.20;;
15228;SDS011;7717;47.792;12.076;2023-04-30T00:04:58;3.53;;;2.80;;
15228;SDS011;7717;47.792;12.076;2023-04-30T00:07:23;3.33;;;3.03;;
15228;SDS011;7717;47.792;12.076;2023-04-30T00:09:48;2.90;;;2.70;;
15228;SDS011;7717;47.792;12.076;2023-04-30T00:12:15;3.07;;;2.63;;
15228;SDS011;7717;47.792;12.076;2023-04-30T00:14:40;4.50;;;3.57;;
15228;SDS011;7717;47.792;12.076;2023-04-30T00:17:05;4.70;;;3.23;;
15228;SDS011;7717;47.792;12.076;2023-04-30T00:19:30;3.37;;;3.07;;
15228;SDS011;7717;47.792;12.076;2023-04-30T00:21:56;3.40;;;3.10;;
15228;SDS011;7717;47.792;12.076;2023-04-30T00:24:21;3.23;;;2.23;;
15228;SDS011;7717;47.792;12.076;2023-04-30T00:26:46;3.10;;;2.90;;
15228;SDS011;7717;47.792;12.076;2023-04-30T00:29:11;2.90;;;2.70;;
15228;SDS011;7717;47.792;12.076;2023-04-30T00:31:37;2.97;;;2.73;;
15228;SDS011;7717;47.792;12.076;2023-04-30T00:34:02;3.73;;;3.13;;
15228;SDS011;7717;47.792;12.076;2023-04-30T00:36:27;4.83;;;3.43;;
15228;SDS011;7717;47.792;12.076;2023-04-30T00:38:52;4.90;;;3.87;;
15228;SDS011;7717;47.792;12.076;2023-04-30T00:41:18;4.57;;;3.70;;
15228;SDS011;7717;47.792;12.076;2023-04-30T00:43:44;3.17;;;2.87;;
15228;SDS011;7717;47.792;12.076;2023-04-30T00:46:11;5.07;;;3.30;;
15228;SDS011;7717;47.792;12.076;2023-04-30T00:48:36;3.20;;;2.90;;
15228;SDS011;7717;47.792;12.076;2023-04-30T00:51:01;3.93;;;3.43;;
15228;SDS011;7717;47.792;12.076;2023-04-30T00:53:27;3.50;;;3.20;;
15228;SDS011;7717;47.792;12.076;2023-04-30T00:55:52;4.13;;;3.73;;
15228;SDS011;7717;47.792;12.076;2023-04-30T00:58:18;3.90;;;3.20;;
15228;SDS011;7717;47.792;12.076;2023-04-30T01:00:43;3.53;;;2.80;;
15228;SDS011;7717;47.792;12.076;2023-04-30T01:03:13;3.30;;;2.87;;
15228;SDS011;7717;47.792;12.076;2023-04-30T01:05:40;3.13;;;2.93;;
15228;SDS011;7717;47.792;12.076;2023-04-30T01:08:05;3.40;;;2.80;;
15228;SDS011;7717;47.792;12.076;2023-04-30T01:10:31;3.23;;;2.97;;
15228;SDS011;7717;47.792;12.076;2023-04-30T01:13:33;4.17;;;3.30;;
15228;SDS011;7717;47.792;12.076;2023-04-30T01:16:10;3.37;;;3.07;;
15228;SDS011;7717;47.792;12.076;2023-04-30T01:18:41;3.40;;;3.10;;
15228;SDS011;7717;47.792;12.076;2023-04-30T01:21:07;3.77;;;3.47;;
15228;SDS011;7717;47.792;12.076;2023-04-30T01:28:48;4.37;;;2.90;;
15228;SDS011;7717;47.792;12.076;2023-04-30T01:31:14;4.00;;;3.43;;
15228;SDS011;7717;47.792;12.076;2023-04-30T01:33:40;5.00;;;3.87;;
15228;SDS011;7717;47.792;12.076;2023-04-30T01:45:57;4.70;;;3.50;;
15228;SDS011;7717;47.792;12.076;2023-04-30T01:51:14;4.47;;;4.07;;
15228;SDS011;7717;47.792;12.076;2023-04-30T01:53:40;3.90;;;3.57;;
15228;SDS011;7717;47.792;12.076;2023-04-30T01:56:09;4.63;;;3.53;;
15228;SDS011;7717;47.792;12.076;2023-04-30T01:58:35;4.63;;;3.70;;
15228;SDS011;7717;47.792;12.076;2023-04-30T02:01:02;4.63;;;3.70;;
15228;SDS011;7717;47.792;12.076;2023-04-30T02:03:27;4.13;;;3.73;;
15228;SDS011;7717;47.792;12.076;2023-04-30T02:05:53;4.67;;;4.13;;
15228;SDS011;7717;47.792;12.076;2023-04-30T02:08:18;5.60;;;4.03;;
15228;SDS011;7717;47.792;12.076;2023-04-30T02:10:44;5.30;;;4.53;;
15228;SDS011;7717;47.792;12.076;2023-04-30T02:13:09;3.90;;;3.60;;
15228;SDS011;7717;47.792;12.076;2023-04-30T02:15:34;4.17;;;3.57;;
15228;SDS011;7717;47.792;12.076;2023-04-30T02:18:00;3.40;;;3.10;;
15228;SDS011;7717;47.792;12.076;2023-04-30T02:20:25;4.07;;;3.23;;
15228;SDS011;7717;47.792;12.076;2023-04-30T02:22:50;4.40;;;3.90;;
15228;SDS011;7717;47.792;12.076;2023-04-30T02:25:16;5.83;;;3.77;;
15228;SDS011;7717;47.792;12.076;2023-04-30T02:27:41;3.90;;;3.50;;
15228;SDS011;7717;47.792;12.076;2023-04-30T02:30:07;4.67;;;3.93;;
15228;SDS011;7717;47.792;12.076;2023-04-30T02:32:32;4.07;;;3.63;;
15228;SDS011;7717;47.792;12.076;2023-04-30T02:34:57;4.47;;;3.47;;
15228;SDS011;7717;47.792;12.076;2023-04-30T02:37:22;3.90;;;3.60;;
15228;SDS011;7717;47.792;12.076;2023-04-30T02:39:48;5.63;;;3.37;;
15228;SDS011;7717;47.792;12.076;2023-04-30T02:42:13;5.83;;;4.20;;
15228;SDS011;7717;47.792;12.076;2023-04-30T02:44:38;5.00;;;3.40;;
15228;SDS011;7717;47.792;12.076;2023-04-30T02:47:04;4.13;;;3.73;;
15228;SDS011;7717;47.792;12.076;2023-04-30T02:49:29;3.70;;;3.40;;
15228;SDS011;7717;47.792;12.076;2023-04-30T02:51:54;4.30;;;3.33;;
15228;SDS011;7717;47.792;12.076;2023-04-30T02:54:19;4.70;;;3.50;;
15228;SDS011;7717;47.792;12.076;2023-04-30T02:56:45;4.70;;;3.27;;
15228;SDS011;7717;47.792;12.076;2023-04-30T02:59:11;5.90;;;3.70;;
15228;SDS011;7717;47.792;12.076;2023-04-30T03:01:36;3.70;;;3.40;;
15228;SDS011;7717;47.792;12.076;2023-04-30T03:04:01;5.13;;;4.23;;
15228;SDS011;7717;47.792;12.076;2023-04-30T03:06:30;4.50;;;3.90;;
15228;SDS011;7717;47.792;12.076;2023-04-30T04:43:28;5.30;;;4.50;;
15228;SDS011;7717;47.792;12.076;2023-04-30T04:50:44;6.72;;;4.38;;
15228;SDS011;7717;47.792;12.076;2023-04-30T04:53:09;6.77;;;4.87;;
15228;SDS011;7717;47.792;12.076;2023-04-30T04:55:34;6.47;;;4.83;;
15228;SDS011;7717;47.792;12.076;2023-04-30T04:58:00;5.00;;;4.50;;
15228;SDS011;7717;47.792;12.076;2023-04-30T05:05:17;5.65;;;4.15;;
15228;SDS011;7717;47.792;12.076;2023-04-30T05:07:42;5.30;;;4.80;;
15228;SDS011;7717;47.792;12.076;2023-04-30T05:10:07;5.80;;;5.07;;
15228;SDS011;7717;47.792;12.076;2023-04-30T05:12:33;5.63;;;5.07;;
15228;SDS011;7717;47.792;12.076;2023-04-30T05:14:58;5.50;;;4.93;;
15228;SDS011;7717;47.792;12.076;2023-04-30T05:17:24;5.17;;;4.67;;
15228;SDS011;7717;47.792;12.076;2023-04-30T05:19:49;5.87;;;4.73;;
15228;SDS011;7717;47.792;12.076;2023-04-30T05:22:15;5.23;;;4.73;;
15228;SDS011;7717;47.792;12.076;2023-04-30T05:24:40;5.37;;;4.87;;
15228;SDS011;7717;47.792;12.076;2023-04-30T05:27:05;5.10;;;4.60;;
15228;SDS011;7717;47.792;12.076;2023-04-30T05:29:31;4.90;;;4.43;;
15228;SDS011;7717;47.792;12.076;2023-04-30T05:31:56;4.87;;;4.43;;
15228;SDS011;7717;47.792;12.076;2023-04-30T05:34:21;6.20;;;5.60;;
15228;SDS011;7717;47.792;12.076;2023-04-30T05:36:46;4.70;;;4.30;;
15228;SDS011;7717;47.792;12.076;2023-04-30T05:39:11;5.37;;;4.50;;
15228;SDS011;7717;47.792;12.076;2023-04-30T05:41:37;4.30;;;3.90;;
15228;SDS011;7717;47.792;12.076;2023-04-30T05:44:02;4.47;;;3.97;;
15228;SDS011;7717;47.792;12.076;2023-04-30T05:46:29;4.70;;;4.27;;
15228;SDS011;7717;47.792;12.076;2023-04-30T05:48:54;6.73;;;4.83;;
15228;SDS011;7717;47.792;12.076;2023-04-30T05:51:19;5.07;;;4.47;;
15228;SDS011;7717;47.792;12.076;2023-04-30T05:53:44;5.07;;;4.50;;
15228;SDS011;7717;47.792;12.076;2023-04-30T05:56:10;4.90;;;4.43;;
15228;SDS011;7717;47.792;12.076;2023-04-30T05:58:36;5.57;;;5.07;;
15228;SDS011;7717;47.792;12.076;2023-04-30T06:01:01;5.50;;;4.80;;
15228;SDS011;7717;47.792;12.076;2023-04-30T06:03:27;4.80;;;4.40;;
15228;SDS011;7717;47.792;12.076;2023-04-30T06:05:52;5.50;;;5.00;;
15228;SDS011;7717;47.792;12.076;2023-04-30T06:08:18;6.10;;;5.50;;
15228;SDS011;7717;47.792;12.076;2023-04-30T06:10:43;8.23;;;5.23;;
15228;SDS011;7717;47.792;12.076;2023-04-30T06:13:08;5.70;;;5.20;;
15228;SDS011;7717;47.792;12.076;2023-04-30T06:15:33;5.20;;;4.70;;
15228;SDS011;7717;47.792;12.076;2023-04-30T06:17:59;6.20;;;5.60;;
15228;SDS011;7717;47.792;12.076;2023-04-30T06:20:24;5.60;;;5.00;;
15228;SDS011;7717;47.792;12.076;2023-04-30T06:22:51;7.17;;;5.07;;
15228;SDS011;7717;47.792;12.076;2023-04-30T06:25:16;6.33;;;5.67;;
15228;SDS011;7717;47.792;12.076;2023-04-30T06:27:41;5.67;;;5.17;;
15228;SDS011;7717;47.792;12.076;2023-04-30T06:30:07;7.20;;;6.00;;
15228;SDS011;7717;47.792;12.076;2023-04-30T06:32:33;6.40;;;5.70;;
15228;SDS011;7717;47.792;12.076;2023-04-30T06:34:58;6.37;;;5.33;;
15228;SDS011;7717;47.792;12.076;2023-04-30T06:37:23;5.03;;;4.63;;
15228;SDS011;7717;47.792;12.076;2023-04-30T06:39:48;5.47;;;4.90;;
15228;SDS011;7717;47.792;12.076;2023-04-30T06:42:14;6.13;;;5.53;;
15228;SDS011;7717;47.792;12.076;2023-04-30T06:44:39;6.00;;;5.40;;
15228;SDS011;7717;47.792;12.076;2023-04-30T06:47:04;6.10;;;5.60;;
15228;SDS011;7717;47.792;12.076;2023-04-30T06:49:30;5.47;;;4.97;;
15228;SDS011;7717;47.792;12.076;2023-04-30T06:51:55;5.73;;;5.13;;
15228;SDS011;7717;47.792;12.076;2023-04-30T06:54:22;6.10;;;5.43;;
15228;SDS011;7717;47.792;12.076;2023-04-30T06:56:47;6.90;;;5.27;;
15228;SDS011;7717;47.792;12.076;2023-04-30T06:59:13;6.97;;;5.77;;
15228;SDS011;7717;47.792;12.076;2023-04-30T07:01:38;6.50;;;5.90;;
15228;SDS011;7717;47.792;12.076;2023-04-30T07:04:04;5.50;;;5.00;;
15228;SDS011;7717;47.792;12.076;2023-04-30T07:06:29;5.80;;;5.20;;
15228;SDS011;7717;47.792;12.076;2023-04-30T07:08:54;6.00;;;5.40;;
15228;SDS011;7717;47.792;12.076;2023-04-30T07:11:20;6.77;;;5.60;;
15228;SDS011;7717;47.792;12.076;2023-04-30T07:13:45;6.50;;;5.50;;
15228;SDS011;7717;47.792;12.076;2023-04-30T07:16:10;5.37;;;4.87;;
15228;SDS011;7717;47.792;12.076;2023-04-30T07:18:35;4.83;;;4.43;;
15228;SDS011;7717;47.792;12.076;2023-04-30T07:21:01;5.15;;;4.65;;
15228;SDS011;7717;47.792;12.076;2023-04-30T07:23:27;5.10;;;4.70;;
15228;SDS011;7717;47.792;12.076;2023-04-30T07:25:53;6.60;;;5.50;;
15228;SDS011;7717;47.792;12.076;2023-04-30T07:28:18;6.33;;;5.73;;
15228;SDS011;7717;47.792;12.076;2023-04-30T07:30:43;6.47;;;5.97;;
15228;SDS011;7717;47.792;12.076;2023-04-30T07:33:08;6.87;;;6.30;;
15228;SDS011;7717;47.792;12.076;2023-04-30T07:35:34;6.77;;;6.10;;
15228;SDS011;7717;47.792;12.076;2023-04-30T07:37:59;7.60;;;6.90;;
15228;SDS011;7717;47.792;12.076;2023-04-30T07:40:25;7.17;;;6.50;;
15228;SDS011;7717;47.792;12.076;2023-04-30T07:42:50;7.60;;;6.13;;
15228;SDS011;7717;47.792;12.076;2023-04-30T07:45:15;6.75;;;6.25;;
15228;SDS011;7717;47.792;12.076;2023-04-30T07:47:40;7.67;;;6.73;;
15228;SDS011;7717;47.792;12.076;2023-04-30T07:50:06;7.43;;;6.80;;
15228;SDS011;7717;47.792;12.076;2023-04-30T07:52:31;7.30;;;6.60;;
15228;SDS011;7717;47.792;12.076;2023-04-30T07:54:56;7.37;;;6.67;;
15228;SDS011;7717;47.792;12.076;2023-04-30T07:57:21;7.60;;;6.80;;
15228;SDS011;7717;47.792;12.076;2023-04-30T07:59:47;7.23;;;6.57;;
15228;SDS011;7717;47.792;12.076;2023-04-30T08:02:12;6.53;;;6.03;;
15228;SDS011;7717;47.792;12.076;2023-04-30T08:04:37;7.57;;;6.83;;
15228;SDS011;7717;47.792;12.076;2023-04-30T08:07:02;6.87;;;6.17;;
15228;SDS011;7717;47.792;12.076;2023-04-30T08:09:28;6.60;;;6.07;;
15228;SDS011;7717;47.792;12.076;2023-04-30T08:11:53;7.03;;;6.43;;
15228;SDS011;7717;47.792;12.076;2023-04-30T08:14:19;6.93;;;6.33;;
15228;SDS011;7717;47.792;12.076;2023-04-30T08:16:45;6.47;;;5.87;;
15228;SDS011;7717;47.792;12.076;2023-04-30T08:19:10;6.40;;;5.80;;
15228;SDS011;7717;47.792;12.076;2023-04-30T08:21:36;7.33;;;6.63;;
15228;SDS011;7717;47.792;12.076;2023-04-30T08:24:01;7.87;;;7.13;;
15228;SDS011;7717;47.792;12.076;2023-04-30T08:26:26;6.87;;;6.27;;
15228;SDS011;7717;47.792;12.076;2023-04-30T08:28:51;9.00;;;6.70;;
15228;SDS011;7717;47.792;12.076;2023-04-30T08:31:17;7.23;;;6.60;;
15228;SDS011;7717;47.792;12.076;2023-04-30T08:33:42;7.03;;;6.43;;
15228;SDS011;7717;47.792;12.076;2023-04-30T08:36:07;7.00;;;6.33;;
15228;SDS011;7717;47.792;12.076;2023-04-30T08:38:32;7.30;;;6.43;;
15228;SDS011;7717;47.792;12.076;2023-04-30T08:43:30;6.87;;;6.17;;
15228;SDS011;7717;47.792;12.076;2023-04-30T08:45:58;6.67;;;6.07;;
15228;SDS011;7717;47.792;12.076;2023-04-30T08:48:23;5.57;;;5.13;;
15228;SDS011;7717;47.792;12.076;2023-04-30T08:50:49;7.23;;;5.60;;
15228;SDS011;7717;47.792;12.076;2023-04-30T08:53:14;6.40;;;5.90;;
15228;SDS011;7717;47.792;12.076;2023-04-30T08:55:41;6.03;;;5.53;;
15228;SDS011;7717;47.792;12.076;2023-04-30T08:58:07;6.40;;;5.83;;
15228;SDS011;7717;47.792;12.076;2023-04-30T09:00:32;5.73;;;5.13;;
15228;SDS011;7717;47.792;12.076;2023-04-30T09:03:00;9.20;;;8.07;;
15228;SDS011;7717;47.792;12.076;2023-04-30T09:05:25;6.20;;;5.70;;
15228;SDS011;7717;47.792;12.076;2023-04-30T09:07:50;5.87;;;5.37;;
15228;SDS011;7717;47.792;12.076;2023-04-30T09:10:16;5.00;;;4.60;;
15228;SDS011;7717;47.792;12.076;2023-04-30T09:12:41;5.20;;;4.80;;
15228;SDS011;7717;47.792;12.076;2023-04-30T09:15:09;5.10;;;4.70;;
15228;SDS011;7717;47.792;12.076;2023-04-30T09:17:35;4.97;;;4.57;;
15228;SDS011;7717;47.792;12.076;2023-04-30T09:20:10;4.20;;;3.80;;
15228;SDS011;7717;47.792;12.076;2023-04-30T09:22:36;4.43;;;4.03;;
15228;SDS011;7717;47.792;12.076;2023-04-30T09:25:01;4.53;;;4.13;;
15228;SDS011;7717;47.792;12.076;2023-04-30T09:27:27;4.53;;;4.13;;
15228;SDS011;7717;47.792;12.076;2023-04-30T09:29:52;4.30;;;3.90;;
15228;SDS011;7717;47.792;12.076;2023-04-30T09:32:17;4.90;;;4.53;;
15228;SDS011;7717;47.792;12.076;2023-04-30T09:34:43;5.23;;;4.73;;
15228;SDS011;7717;47.792;12.076;2023-04-30T09:37:09;5.80;;;5.30;;
15228;SDS011;7717;47.792;12.076;2023-04-30T09:39:45;5.07;;;4.57;;
15228;SDS011;7717;47.792;12.076;2023-04-30T09:42:10;5.27;;;4.67;;
15228;SDS011;7717;47.792;12.076;2023-04-30T09:44:36;5.03;;;4.20;;
15228;SDS011;7717;47.792;12.076;2023-04-30T09:47:02;5.70;;;4.10;;
15228;SDS011;7717;47.792;12.076;2023-04-30T09:49:27;4.73;;;4.33;;
15228;SDS011;7717;47.792;12.076;2023-04-30T09:51:56;5.30;;;4.80;;
15228;SDS011;7717;47.792;12.076;2023-04-30T09:54:24;5.63;;;5.17;;
15228;SDS011;7717;47.792;12.076;2023-04-30T09:56:52;5.40;;;4.05;;
15228;SDS011;7717;47.792;12.076;2023-04-30T09:59:18;4.53;;;4.13;;
15228;SDS011;7717;47.792;12.076;2023-04-30T10:01:45;4.63;;;4.10;;
15228;SDS011;7717;47.792;12.076;2023-04-30T10:04:10;5.60;;;5.10;;
15228;SDS011;7717;47.792;12.076;2023-04-30T10:06:36;4.40;;;4.10;;
15228;SDS011;7717;47.792;12.076;2023-04-30T10:09:02;5.27;;;4.83;;
15228;SDS011;7717;47.792;12.076;2023-04-30T10:11:29;4.50;;;4.10;;
15228;SDS011;7717;47.792;12.076;2023-04-30T10:14:02;4.63;;;4.10;;
15228;SDS011;7717;47.792;12.076;2023-04-30T10:19:00;3.83;;;3.07;;
15228;SDS011;7717;47.792;12.076;2023-04-30T10:21:27;4.07;;;3.50;;
15228;SDS011;7717;47.792;12.076;2023-04-30T10:23:53;3.70;;;3.40;;
15228;SDS011;7717;47.792;12.076;2023-04-30T10:26:18;4.37;;;3.97;;
15228;SDS011;7717;47.792;12.076;2023-04-30T10:28:44;6.47;;;5.30;;
15228;SDS011;7717;47.792;12.076;2023-04-30T10:31:09;3.40;;;3.20;;
15228;SDS011;7717;47.792;12.076;2023-04-30T10:36:38;3.60;;;3.27;;
15228;SDS011;7717;47.792;12.076;2023-04-30T10:39:05;4.10;;;3.10;;
15228;SDS011;7717;47.792;12.076;2023-04-30T10:41:30;2.88;;;2.67;;
15228;SDS011;7717;47.792;12.076;2023-04-30T10:43:57;3.30;;;2.83;;
15228;SDS011;7717;47.792;12.076;2023-04-30T10:46:24;3.05;;;2.85;;
15228;SDS011;7717;47.792;12.076;2023-04-30T10:48:51;3.58;;;3.28;;
15228;SDS011;7717;47.792;12.076;2023-04-30T10:51:18;3.13;;;2.92;;
15228;SDS011;7717;47.792;12.076;2023-04-30T10:53:44;4.00;;;3.63;;
15228;SDS011;7717;47.792;12.076;2023-04-30T10:56:11;3.13;;;2.83;;
15228;SDS011;7717;47.792;12.076;2023-04-30T10:58:37;3.00;;;2.70;;
15228;SDS011;7717;47.792;12.076;2023-04-30T11:01:05;3.30;;;3.00;;
15228;SDS011;7717;47.792;12.076;2023-04-30T11:03:31;2.97;;;2.77;;
15228;SDS011;7717;47.792;12.076;2023-04-30T11:05:57;2.43;;;2.27;;
15228;SDS011;7717;47.792;12.076;2023-04-30T11:08:33;2.37;;;2.20;;
15228;SDS011;7717;47.792;12.076;2023-04-30T11:10:59;2.63;;;2.43;;
15228;SDS011;7717;47.792;12.076;2023-04-30T11:13:25;3.97;;;2.63;;
15228;SDS011;7717;47.792;12.076;2023-04-30T11:15:51;2.57;;;2.37;;
15228;SDS011;7717;47.792;12.076;2023-04-30T11:18:16;4.37;;;2.70;;
15228;SDS011;7717;47.792;12.076;2023-04-30T11:20:48;2.57;;;2.37;;
15228;SDS011;7717;47.792;12.076;2023-04-30T11:23:14;3.23;;;2.20;;
15228;SDS011;7717;47.792;12.076;2023-04-30T11:25:40;2.43;;;2.23;;
15228;SDS011;7717;47.792;12.076;2023-04-30T11:28:06;2.87;;;2.67;;
15228;SDS011;7717;47.792;12.076;2023-04-30T11:30:31;2.37;;;2.27;;
15228;SDS011;7717;47.792;12.076;2023-04-30T11:32:58;2.50;;;2.30;;
15228;SDS011;7717;47.792;12.076;2023-04-30T11:35:23;3.57;;;2.67;;
15228;SDS011;7717;47.792;12.076;2023-04-30T11:37:48;2.90;;;2.70;;
15228;SDS011;7717;47.792;12.076;2023-04-30T11:40:14;3.47;;;2.90;;
15228;SDS011;7717;47.792;12.076;2023-04-30T11:42:40;3.17;;;2.87;;
15228;SDS011;7717;47.792;12.076;2023-04-30T11:50:05;2.60;;;2.40;;
15228;SDS011;7717;47.792;12.076;2023-04-30T11:52:31;3.20;;;3.00;;
15228;SDS011;7717;47.792;12.076;2023-04-30T11:54:56;3.13;;;2.83;;
15228;SDS011;7717;47.792;12.076;2023-04-30T11:57:21;3.07;;;2.53;;
15228;SDS011;7717;47.792;12.076;2023-04-30T11:59:47;2.70;;;2.50;;
15228;SDS011;7717;47.792;12.076;2023-04-30T12:02:14;2.90;;;2.70;;
15228;SDS011;7717;47.792;12.076;2023-04-30T12:04:41;3.40;;;3.07;;
15228;SDS011;7717;47.792;12.076;2023-04-30T12:07:06;3.20;;;2.80;;
15228;SDS011;7717;47.792;12.076;2023-04-30T12:09:33;2.20;;;2.10;;
15228;SDS011;7717;47.792;12.076;2023-04-30T12:12:24;2.67;;;2.47;;
15228;SDS011;7717;47.792;12.076;2023-04-30T12:14:50;2.57;;;2.37;;
15228;SDS011;7717;47.792;12.076;2023-04-30T12:17:29;2.60;;;2.40;;
15228;SDS011;7717;47.792;12.076;2023-04-30T12:19:54;2.50;;;2.30;;
15228;SDS011;7717;47.792;12.076;2023-04-30T12:22:20;2.77;;;2.57;;
15228;SDS011;7717;47.792;12.076;2023-04-30T12:24:45;2.70;;;2.50;;
15228;SDS011;7717;47.792;12.076;2023-04-30T12:27:11;2.20;;;2.10;;
15228;SDS011;7717;47.792;12.076;2023-04-30T12:29:36;2.33;;;1.40;;
15228;SDS011;7717;47.792;12.076;2023-04-30T12:32:04;2.60;;;2.40;;
15228;SDS011;7717;47.792;12.076;2023-04-30T12:34:29;2.40;;;2.20;;
15228;SDS011;7717;47.792;12.076;2023-04-30T12:36:56;2.20;;;2.10;;
15228;SDS011;7717;47.792;12.076;2023-04-30T12:39:22;3.47;;;2.45;;
15228;SDS011;7717;47.792;12.076;2023-04-30T12:41:48;2.13;;;2.03;;
15228;SDS011;7717;47.792;12.076;2023-04-30T12:46:38;2.17;;;2.00;;
15228;SDS011;7717;47.792;12.076;2023-04-30T12:49:03;2.85;;;2.10;;
15228;SDS011;7717;47.792;12.076;2023-04-30T12:51:29;2.10;;;1.90;;
15228;SDS011;7717;47.792;12.076;2023-04-30T12:53:57;2.50;;;1.98;;
15228;SDS011;7717;47.792;12.076;2023-04-30T12:56:22;2.00;;;1.90;;
15228;SDS011;7717;47.792;12.076;2023-04-30T12:58:47;2.08;;;1.90;;
15228;SDS011;7717;47.792;12.076;2023-04-30T13:01:21;2.63;;;2.22;;
15228;SDS011;7717;47.792;12.076;2023-04-30T13:03:50;2.25;;;2.00;;
15228;SDS011;7717;47.792;12.076;2023-04-30T13:06:15;2.25;;;2.10;;
15228;SDS011;7717;47.792;12.076;2023-04-30T13:08:40;2.25;;;2.08;;
15228;SDS011;7717;47.792;12.076;2023-04-30T13:11:06;2.10;;;1.95;;
15228;SDS011;7717;47.792;12.076;2023-04-30T13:13:31;2.20;;;2.10;;
15228;SDS011;7717;47.792;12.076;2023-04-30T13:15:56;2.37;;;2.17;;
15228;SDS011;7717;47.792;12.076;2023-04-30T13:18:21;2.50;;;2.20;;
15228;SDS011;7717;47.792;12.076;2023-04-30T13:20:47;2.50;;;2.30;;
15228;SDS011;7717;47.792;12.076;2023-04-30T13:25:37;2.63;;;2.40;;
15228;SDS011;7717;47.792;12.076;2023-04-30T13:28:03;3.10;;;2.53;;
15228;SDS011;7717;47.792;12.076;2023-04-30T13:30:28;3.60;;;2.80;;
15228;SDS011;7717;47.792;12.076;2023-04-30T13:32:54;3.17;;;2.90;;
15228;SDS011;7717;47.792;12.076;2023-04-30T13:35:19;2.40;;;2.20;;
15228;SDS011;7717;47.792;12.076;2023-04-30T13:37:44;2.67;;;2.47;;
15228;SDS011;7717;47.792;12.076;2023-04-30T13:40:12;2.70;;;2.50;;
15228;SDS011;7717;47.792;12.076;2023-04-30T13:42:37;3.10;;;2.80;;
15228;SDS011;7717;47.792;12.076;2023-04-30T13:47:28;2.53;;;2.33;;
15228;SDS011;7717;47.792;12.076;2023-04-30T13:49:53;2.60;;;2.40;;
15228;SDS011;7717;47.792;12.076;2023-04-30T13:52:18;2.60;;;2.40;;
15228;SDS011;7717;47.792;12.076;2023-04-30T13:54:44;2.33;;;2.20;;
15228;SDS011;7717;47.792;12.076;2023-04-30T13:57:09;2.37;;;2.17;;
15228;SDS011;7717;47.792;12.076;2023-04-30T13:59:34;3.10;;;2.70;;
15228;SDS011;7717;47.792;12.076;2023-04-30T14:02:00;2.20;;;2.10;;
15228;SDS011;7717;47.792;12.076;2023-04-30T14:04:25;3.40;;;2.10;;
15228;SDS011;7717;47.792;12.076;2023-04-30T14:06:51;2.40;;;2.20;;
15228;SDS011;7717;47.792;12.076;2023-04-30T14:09:20;2.60;;;2.40;;
15228;SDS011;7717;47.792;12.076;2023-04-30T14:11:45;2.90;;;2.70;;
15228;SDS011;7717;47.792;12.076;2023-04-30T14:14:11;2.50;;;2.30;;
15228;SDS011;7717;47.792;12.076;2023-04-30T14:16:36;2.43;;;2.30;;
15228;SDS011;7717;47.792;12.076;2023-04-30T14:19:01;2.77;;;2.57;;
15228;SDS011;7717;47.792;12.076;2023-04-30T14:21:27;3.00;;;2.40;;
15228;SDS011;7717;47.792;12.076;2023-04-30T14:23:53;3.10;;;2.90;;
15228;SDS011;7717;47.792;12.076;2023-04-30T14:26:18;2.37;;;2.20;;
15228;SDS011;7717;47.792;12.076;2023-04-30T14:28:46;2.67;;;2.47;;
15228;SDS011;7717;47.792;12.076;2023-04-30T14:31:11;2.70;;;2.50;;
15228;SDS011;7717;47.792;12.076;2023-04-30T14:33:37;3.40;;;2.77;;
15228;SDS011;7717;47.792;12.076;2023-04-30T14:36:02;2.90;;;2.60;;
15228;SDS011;7717;47.792;12.076;2023-04-30T14:38:27;1.50;;;1.40;;
15228;SDS011;7717;47.792;12.076;2023-04-30T14:40:53;3.20;;;2.60;;
15228;SDS011;7717;47.792;12.076;2023-04-30T14:43:18;2.33;;;2.17;;
15228;SDS011;7717;47.792;12.076;2023-04-30T14:45:43;2.43;;;2.23;;
15228;SDS011;7717;47.792;12.076;2023-04-30T14:48:10;2.10;;;2.00;;
15228;SDS011;7717;47.792;12.076;2023-04-30T14:50:35;3.23;;;2.67;;
15228;SDS011;7717;47.792;12.076;2023-04-30T14:53:01;2.80;;;2.60;;
15228;SDS011;7717;47.792;12.076;2023-04-30T14:55:26;2.57;;;2.37;;
15228;SDS011;7717;47.792;12.076;2023-04-30T14:57:52;2.80;;;2.60;;
15228;SDS011;7717;47.792;12.076;2023-04-30T15:00:17;3.00;;;2.80;;
15228;SDS011;7717;47.792;12.076;2023-04-30T15:02:42;2.80;;;2.60;;
15228;SDS011;7717;47.792;12.076;2023-04-30T15:05:08;2.60;;;2.40;;
15228;SDS011;7717;47.792;12.076;2023-04-30T15:07:33;2.60;;;2.40;;
15228;SDS011;7717;47.792;12.076;2023-04-30T15:09:59;2.50;;;2.20;;
15228;SDS011;7717;47.792;12.076;2023-04-30T15:12:24;2.63;;;2.33;;
15228;SDS011;7717;47.792;12.076;2023-04-30T15:14:49;2.43;;;2.23;;
15228;SDS011;7717;47.792;12.076;2023-04-30T15:17:15;2.50;;;2.10;;
15228;SDS011;7717;47.792;12.076;2023-04-30T15:19:40;2.93;;;2.30;;
15228;SDS011;7717;47.792;12.076;2023-04-30T15:22:05;2.10;;;2.00;;
15228;SDS011;7717;47.792;12.076;2023-04-30T15:24:31;2.97;;;2.27;;
15228;SDS011;7717;47.792;12.076;2023-04-30T15:26:56;2.50;;;2.37;;
15228;SDS011;7717;47.792;12.076;2023-04-30T15:29:22;2.80;;;2.60;;
15228;SDS011;7717;47.792;12.076;2023-04-30T15:31:48;2.20;;;2.10;;
15228;SDS011;7717;47.792;12.076;2023-04-30T15:34:16;2.73;;;2.23;;
15228;SDS011;7717;47.792;12.076;2023-04-30T15:36:41;2.30;;;2.10;;
15228;SDS011;7717;47.792;12.076;2023-04-30T15:39:06;2.50;;;2.30;;
15228;SDS011;7717;47.792;12.076;2023-04-30T15:41:32;2.67;;;2.47;;
15228;SDS011;7717;47.792;12.076;2023-04-30T15:43:57;2.57;;;2.37;;
15228;SDS011;7717;47.792;12.076;2023-04-30T15:46:22;2.43;;;2.27;;
15228;SDS011;7717;47.792;12.076;2023-04-30T15:48:47;2.20;;;2.10;;
15228;SDS011;7717;47.792;12.076;2023-04-30T15:51:12;2.93;;;2.40;;
15228;SDS011;7717;47.792;12.076;2023-04-30T15:53:38;2.10;;;2.00;;
15228;SDS011;7717;47.792;12.076;2023-04-30T15:56:03;2.17;;;2.07;;
15228;SDS011;7717;47.792;12.076;2023-04-30T15:58:28;2.63;;;2.43;;
15228;SDS011;7717;47.792;12.076;2023-04-30T16:00:54;4.07;;;2.67;;
15228;SDS011;7717;47.792;12.076;2023-04-30T16:03:20;2.40;;;2.20;;
15228;SDS011;7717;47.792;12.076;2023-04-30T16:05:45;2.40;;;2.20;;
15228;SDS011;7717;47.792;12.076;2023-04-30T16:08:10;2.33;;;2.13;;
15228;SDS011;7717;47.792;12.076;2023-04-30T16:10:36;2.20;;;2.10;;
15228;SDS011;7717;47.792;12.076;2023-04-30T16:13:01;2.00;;;1.90;;
15228;SDS011;7717;47.792;12.076;2023-04-30T16:15:26;2.70;;;2.50;;
15228;SDS011;7717;47.792;12.076;2023-04-30T16:17:54;3.10;;;2.10;;
15228;SDS011;7717;47.792;12.076;2023-04-30T16:20:19;2.53;;;2.00;;
15228;SDS011;7717;47.792;12.076;2023-04-30T16:22:45;2.80;;;2.50;;
15228;SDS011;7717;47.792;12.076;2023-04-30T16:25:12;2.87;;;2.20;;
15228;SDS011;7717;47.792;12.076;2023-04-30T16:27:37;2.50;;;2.30;;
15228;SDS011;7717;47.792;12.076;2023-04-30T16:30:02;2.70;;;2.40;;
15228;SDS011;7717;47.792;12.076;2023-04-30T16:32:27;2.50;;;2.30;;
15228;SDS011;7717;47.792;12.076;2023-04-30T16:34:53;3.47;;;2.37;;
15228;SDS011;7717;47.792;12.076;2023-04-30T16:37:18;2.73;;;2.53;;
15228;SDS011;7717;47.792;12.076;2023-04-30T16:39:44;2.67;;;2.23;;
15228;SDS011;7717;47.792;12.076;2023-04-30T16:42:09;2.87;;;2.10;;
15228;SDS011;7717;47.792;12.076;2023-04-30T16:44:35;2.50;;;2.30;;
15228;SDS011;7717;47.792;12.076;2023-04-30T16:47:00;2.37;;;2.17;;
15228;SDS011;7717;47.792;12.076;2023-04-30T16:49:26;2.03;;;1.90;;
15228;SDS011;7717;47.792;12.076;2023-04-30T16:51:51;4.40;;;2.40;;
15228;SDS011;7717;47.792;12.076;2023-04-30T16:54:17;2.97;;;2.70;;
15228;SDS011;7717;47.792;12.076;2023-04-30T16:56:42;2.63;;;2.47;;
15228;SDS011;7717;47.792;12.076;2023-04-30T16:59:07;4.03;;;2.83;;
15228;SDS011;7717;47.792;12.076;2023-04-30T17:01:32;2.60;;;2.40;;